sensor_id;sensor_type;location;lat;lon;timestamp;P1;durP1;ratioP1;P2;durP2;ratioP2
66886;SDS011;67239;51.680;5.976;2023-08-20T00:01:40;12.77;;;7.15;;
66886;SDS011;67239;51.680;5.976;2023-08-20T00:04:08;12.32;;;6.85;;
66886;SDS011;67239;51.680;5.976;2023-08-20T00:06:36;10.80;;;7.03;;
66886;SDS011;67239;51.680;5.976;2023-08-20T00:09:04;17.25;;;7.43;;
66886;SDS011;67239;51.680;5.976;2023-08-20T00:11:33;13.45;;;7.13;;
66886;SDS011;67239;51.680;5.976;2023-08-20T00:14:00;15.13;;;7.55;;
66886;SDS011;67239;51.680;5.976;2023-08-20T00:16:27;12.10;;;6.70;;
66886;SDS011;67239;51.680;5.976;2023-08-20T00:18:55;10.98;;;6.93;;
66886;SDS011;67239;51.680;5.976;2023-08-20T00:21:22;11.35;;;6.85;;
66886;SDS011;67239;51.680;5.976;2023-08-20T00:23:50;9.90;;;6.85;;
66886;SDS011;67239;51.680;5.976;2023-08-20T00:26:17;10.45;;;6.95;;
66886;SDS011;67239;51.680;5.976;2023-08-20T00:28:45;8.82;;;6.85;;
66886;SDS011;67239;51.680;5.976;2023-08-20T00:31:12;12.10;;;6.93;;
66886;SDS011;67239;51.680;5.976;2023-08-20T00:33:39;10.70;;;6.53;;
66886;SDS011;67239;51.680;5.976;2023-08-20T00:36:16;12.35;;;6.72;;
66886;SDS011;67239;51.680;5.976;2023-08-20T00:38:44;12.88;;;6.93;;
66886;SDS011;67239;51.680;5.976;2023-08-20T00:41:11;10.30;;;7.53;;
66886;SDS011;67239;51.680;5.976;2023-08-20T00:43:38;12.77;;;7.03;;
66886;SDS011;67239;51.680;5.976;2023-08-20T00:46:05;10.27;;;6.85;;
66886;SDS011;67239;51.680;5.976;2023-08-20T00:48:33;9.77;;;6.63;;
66886;SDS011;67239;51.680;5.976;2023-08-20T00:51:01;13.80;;;6.97;;
66886;SDS011;67239;51.680;5.976;2023-08-20T00:53:29;11.38;;;6.97;;
66886;SDS011;67239;51.680;5.976;2023-08-20T00:55:56;10.15;;;6.75;;
66886;SDS011;67239;51.680;5.976;2023-08-20T00:58:23;11.02;;;7.28;;
66886;SDS011;67239;51.680;5.976;2023-08-20T01:00:50;15.02;;;7.30;;
66886;SDS011;67239;51.680;5.976;2023-08-20T01:03:17;12.52;;;7.30;;
66886;SDS011;67239;51.680;5.976;2023-08-20T01:05:46;12.30;;;6.78;;
66886;SDS011;67239;51.680;5.976;2023-08-20T01:08:38;11.98;;;7.55;;
66886;SDS011;67239;51.680;5.976;2023-08-20T01:11:12;12.30;;;6.68;;
66886;SDS011;67239;51.680;5.976;2023-08-20T01:13:48;11.90;;;6.97;;
66886;SDS011;67239;51.680;5.976;2023-08-20T01:16:15;11.57;;;7.30;;
66886;SDS011;67239;51.680;5.976;2023-08-20T01:18:42;14.13;;;7.15;;
66886;SDS011;67239;51.680;5.976;2023-08-20T01:21:47;17.48;;;8.05;;
66886;SDS011;67239;51.680;5.976;2023-08-20T01:30:34;11.70;;;6.63;;
66886;SDS011;67239;51.680;5.976;2023-08-20T01:33:02;14.02;;;7.97;;
66886;SDS011;67239;51.680;5.976;2023-08-20T01:35:29;12.77;;;7.75;;
66886;SDS011;67239;51.680;5.976;2023-08-20T01:38:02;11.33;;;8.57;;
66886;SDS011;67239;51.680;5.976;2023-08-20T01:40:30;14.30;;;8.20;;
66886;SDS011;67239;51.680;5.976;2023-08-20T01:42:59;9.80;;;7.00;;
66886;SDS011;67239;51.680;5.976;2023-08-20T01:45:26;11.18;;;7.50;;
66886;SDS011;67239;51.680;5.976;2023-08-20T01:47:53;12.32;;;7.63;;
66886;SDS011;67239;51.680;5.976;2023-08-20T01:50:20;13.82;;;7.78;;
66886;SDS011;67239;51.680;5.976;2023-08-20T01:52:48;12.15;;;8.30;;
66886;SDS011;67239;51.680;5.976;2023-08-20T01:55:15;10.40;;;7.53;;
66886;SDS011;67239;51.680;5.976;2023-08-20T01:57:42;15.48;;;7.70;;
66886;SDS011;67239;51.680;5.976;2023-08-20T02:00:10;11.48;;;7.93;;
66886;SDS011;67239;51.680;5.976;2023-08-20T02:02:41;12.02;;;8.15;;
66886;SDS011;67239;51.680;5.976;2023-08-20T02:05:08;12.77;;;7.80;;
66886;SDS011;67239;51.680;5.976;2023-08-20T02:07:38;13.77;;;7.40;;
66886;SDS011;67239;51.680;5.976;2023-08-20T02:10:05;11.60;;;6.40;;
66886;SDS011;67239;51.680;5.976;2023-08-20T02:12:33;11.23;;;6.95;;
66886;SDS011;67239;51.680;5.976;2023-08-20T02:15:00;11.85;;;7.10;;
66886;SDS011;67239;51.680;5.976;2023-08-20T02:17:27;10.38;;;6.50;;
66886;SDS011;67239;51.680;5.976;2023-08-20T02:19:54;10.85;;;6.30;;
66886;SDS011;67239;51.680;5.976;2023-08-20T02:22:22;10.40;;;6.78;;
66886;SDS011;67239;51.680;5.976;2023-08-20T02:24:49;11.50;;;6.88;;
66886;SDS011;67239;51.680;5.976;2023-08-20T02:27:16;12.98;;;6.85;;
66886;SDS011;67239;51.680;5.976;2023-08-20T02:29:43;10.18;;;6.78;;
66886;SDS011;67239;51.680;5.976;2023-08-20T02:32:14;11.57;;;7.18;;
66886;SDS011;67239;51.680;5.976;2023-08-20T02:34:41;9.77;;;7.55;;
66886;SDS011;67239;51.680;5.976;2023-08-20T02:37:08;10.95;;;7.35;;
66886;SDS011;67239;51.680;5.976;2023-08-20T02:39:35;11.18;;;7.28;;
66886;SDS011;67239;51.680;5.976;2023-08-20T02:42:02;11.27;;;7.15;;
66886;SDS011;67239;51.680;5.976;2023-08-20T02:44:30;10.93;;;6.63;;
66886;SDS011;67239;51.680;5.976;2023-08-20T02:46:57;11.88;;;7.00;;
66886;SDS011;67239;51.680;5.976;2023-08-20T02:49:24;8.73;;;6.40;;
66886;SDS011;67239;51.680;5.976;2023-08-20T02:51:51;9.18;;;6.70;;
66886;SDS011;67239;51.680;5.976;2023-08-20T02:54:18;8.48;;;6.05;;
66886;SDS011;67239;51.680;5.976;2023-08-20T02:56:45;13.30;;;7.07;;
66886;SDS011;67239;51.680;5.976;2023-08-20T02:59:13;15.38;;;7.75;;
66886;SDS011;67239;51.680;5.976;2023-08-20T03:01:40;14.10;;;7.13;;
66886;SDS011;67239;51.680;5.976;2023-08-20T03:04:07;10.23;;;6.30;;
66886;SDS011;67239;51.680;5.976;2023-08-20T03:06:34;13.68;;;6.63;;
66886;SDS011;67239;51.680;5.976;2023-08-20T03:09:01;12.98;;;6.88;;
66886;SDS011;67239;51.680;5.976;2023-08-20T03:11:30;10.20;;;6.05;;
66886;SDS011;67239;51.680;5.976;2023-08-20T03:13:58;11.80;;;6.78;;
66886;SDS011;67239;51.680;5.976;2023-08-20T03:16:25;15.50;;;6.55;;
66886;SDS011;67239;51.680;5.976;2023-08-20T03:18:52;17.15;;;6.97;;
66886;SDS011;67239;51.680;5.976;2023-08-20T03:21:19;14.85;;;6.72;;
66886;SDS011;67239;51.680;5.976;2023-08-20T03:23:46;11.45;;;6.25;;
66886;SDS011;67239;51.680;5.976;2023-08-20T03:26:13;13.35;;;6.47;;
66886;SDS011;67239;51.680;5.976;2023-08-20T03:28:40;11.52;;;6.90;;
66886;SDS011;67239;51.680;5.976;2023-08-20T03:31:08;10.70;;;6.53;;
66886;SDS011;67239;51.680;5.976;2023-08-20T03:33:39;16.33;;;7.28;;
66886;SDS011;67239;51.680;5.976;2023-08-20T03:36:06;13.85;;;6.90;;
66886;SDS011;67239;51.680;5.976;2023-08-20T03:38:33;12.68;;;7.35;;
66886;SDS011;67239;51.680;5.976;2023-08-20T03:41:01;14.15;;;7.20;;
66886;SDS011;67239;51.680;5.976;2023-08-20T03:43:28;9.65;;;6.93;;
66886;SDS011;67239;51.680;5.976;2023-08-20T03:45:55;11.77;;;6.72;;
66886;SDS011;67239;51.680;5.976;2023-08-20T03:48:24;12.32;;;6.43;;
66886;SDS011;67239;51.680;5.976;2023-08-20T03:50:51;11.32;;;7.05;;
66886;SDS011;67239;51.680;5.976;2023-08-20T03:53:18;10.57;;;6.90;;
66886;SDS011;67239;51.680;5.976;2023-08-20T03:55:48;14.98;;;7.28;;
66886;SDS011;67239;51.680;5.976;2023-08-20T03:58:18;12.77;;;7.07;;
66886;SDS011;67239;51.680;5.976;2023-08-20T04:00:45;15.00;;;7.82;;
66886;SDS011;67239;51.680;5.976;2023-08-20T04:03:12;10.95;;;6.65;;
66886;SDS011;67239;51.680;5.976;2023-08-20T04:05:40;18.33;;;8.40;;
66886;SDS011;67239;51.680;5.976;2023-08-20T04:08:08;12.13;;;7.20;;
66886;SDS011;67239;51.680;5.976;2023-08-20T04:10:35;14.18;;;8.00;;
66886;SDS011;67239;51.680;5.976;2023-08-20T04:13:06;12.05;;;7.22;;
66886;SDS011;67239;51.680;5.976;2023-08-20T04:15:34;13.35;;;6.78;;
66886;SDS011;67239;51.680;5.976;2023-08-20T04:18:01;15.43;;;6.50;;
66886;SDS011;67239;51.680;5.976;2023-08-20T04:20:29;11.93;;;6.50;;
66886;SDS011;67239;51.680;5.976;2023-08-20T04:22:58;9.98;;;7.13;;
66886;SDS011;67239;51.680;5.976;2023-08-20T04:25:25;12.70;;;7.38;;
66886;SDS011;67239;51.680;5.976;2023-08-20T04:27:52;10.18;;;6.85;;
66886;SDS011;67239;51.680;5.976;2023-08-20T04:30:19;10.73;;;6.88;;
66886;SDS011;67239;51.680;5.976;2023-08-20T04:32:46;12.05;;;7.05;;
66886;SDS011;67239;51.680;5.976;2023-08-20T04:35:15;11.75;;;7.55;;
66886;SDS011;67239;51.680;5.976;2023-08-20T04:37:42;12.25;;;7.40;;
66886;SDS011;67239;51.680;5.976;2023-08-20T04:40:09;12.60;;;6.55;;
66886;SDS011;67239;51.680;5.976;2023-08-20T04:42:37;14.18;;;6.88;;
66886;SDS011;67239;51.680;5.976;2023-08-20T04:45:06;13.23;;;6.60;;
66886;SDS011;67239;51.680;5.976;2023-08-20T04:47:34;10.43;;;6.95;;
66886;SDS011;67239;51.680;5.976;2023-08-20T04:50:03;15.98;;;7.50;;
66886;SDS011;67239;51.680;5.976;2023-08-20T04:52:33;9.43;;;6.38;;
66886;SDS011;67239;51.680;5.976;2023-08-20T04:55:01;13.98;;;6.57;;
66886;SDS011;67239;51.680;5.976;2023-08-20T04:57:29;10.65;;;6.30;;
66886;SDS011;67239;51.680;5.976;2023-08-20T04:59:57;9.20;;;5.85;;
66886;SDS011;67239;51.680;5.976;2023-08-20T05:02:40;9.93;;;6.05;;
66886;SDS011;67239;51.680;5.976;2023-08-20T05:05:11;10.00;;;6.18;;
66886;SDS011;67239;51.680;5.976;2023-08-20T05:07:38;12.07;;;6.18;;
66886;SDS011;67239;51.680;5.976;2023-08-20T05:10:06;12.30;;;6.88;;
66886;SDS011;67239;51.680;5.976;2023-08-20T05:12:34;14.75;;;6.13;;
66886;SDS011;67239;51.680;5.976;2023-08-20T05:15:03;10.30;;;5.93;;
66886;SDS011;67239;51.680;5.976;2023-08-20T05:17:31;10.27;;;6.30;;
66886;SDS011;67239;51.680;5.976;2023-08-20T05:19:59;9.57;;;6.35;;
66886;SDS011;67239;51.680;5.976;2023-08-20T05:22:26;8.57;;;5.88;;
66886;SDS011;67239;51.680;5.976;2023-08-20T05:24:53;11.75;;;6.32;;
66886;SDS011;67239;51.680;5.976;2023-08-20T05:27:20;11.15;;;5.35;;
66886;SDS011;67239;51.680;5.976;2023-08-20T05:29:50;7.55;;;5.95;;
66886;SDS011;67239;51.680;5.976;2023-08-20T05:32:18;7.80;;;5.22;;
66886;SDS011;67239;51.680;5.976;2023-08-20T05:34:46;7.38;;;4.85;;
66886;SDS011;67239;51.680;5.976;2023-08-20T05:37:13;9.40;;;4.57;;
66886;SDS011;67239;51.680;5.976;2023-08-20T05:39:41;9.35;;;4.53;;
66886;SDS011;67239;51.680;5.976;2023-08-20T05:42:10;6.60;;;3.90;;
66886;SDS011;67239;51.680;5.976;2023-08-20T05:44:42;7.30;;;3.85;;
66886;SDS011;67239;51.680;5.976;2023-08-20T05:47:13;9.57;;;3.92;;
66886;SDS011;67239;51.680;5.976;2023-08-20T05:49:40;6.93;;;3.55;;
66886;SDS011;67239;51.680;5.976;2023-08-20T05:52:07;8.13;;;4.53;;
66886;SDS011;67239;51.680;5.976;2023-08-20T05:54:35;9.32;;;4.78;;
66886;SDS011;67239;51.680;5.976;2023-08-20T05:57:02;10.55;;;4.63;;
66886;SDS011;67239;51.680;5.976;2023-08-20T05:59:29;11.30;;;4.85;;
66886;SDS011;67239;51.680;5.976;2023-08-20T06:01:56;11.05;;;6.18;;
66886;SDS011;67239;51.680;5.976;2023-08-20T06:04:24;13.57;;;7.95;;
66886;SDS011;67239;51.680;5.976;2023-08-20T06:06:51;19.70;;;9.38;;
66886;SDS011;67239;51.680;5.976;2023-08-20T06:09:18;29.17;;;11.15;;
66886;SDS011;67239;51.680;5.976;2023-08-20T06:11:46;22.50;;;10.73;;
66886;SDS011;67239;51.680;5.976;2023-08-20T06:14:13;21.10;;;10.15;;
66886;SDS011;67239;51.680;5.976;2023-08-20T06:16:40;18.33;;;10.77;;
66886;SDS011;67239;51.680;5.976;2023-08-20T06:19:07;15.63;;;10.43;;
66886;SDS011;67239;51.680;5.976;2023-08-20T06:21:35;14.88;;;10.77;;
66886;SDS011;67239;51.680;5.976;2023-08-20T06:24:02;15.10;;;10.70;;
66886;SDS011;67239;51.680;5.976;2023-08-20T06:26:30;16.02;;;10.75;;
66886;SDS011;67239;51.680;5.976;2023-08-20T06:28:57;15.55;;;10.93;;
66886;SDS011;67239;51.680;5.976;2023-08-20T06:31:24;14.73;;;10.52;;
66886;SDS011;67239;51.680;5.976;2023-08-20T06:33:52;18.33;;;10.75;;
66886;SDS011;67239;51.680;5.976;2023-08-20T06:36:19;12.98;;;10.80;;
66886;SDS011;67239;51.680;5.976;2023-08-20T06:38:46;15.70;;;10.10;;
66886;SDS011;67239;51.680;5.976;2023-08-20T06:41:13;20.38;;;11.40;;
66886;SDS011;67239;51.680;5.976;2023-08-20T06:43:40;17.90;;;11.48;;
66886;SDS011;67239;51.680;5.976;2023-08-20T06:46:07;14.93;;;10.20;;
66886;SDS011;67239;51.680;5.976;2023-08-20T06:48:34;20.65;;;12.13;;
66886;SDS011;67239;51.680;5.976;2023-08-20T06:51:10;15.73;;;10.52;;
66886;SDS011;67239;51.680;5.976;2023-08-20T06:53:39;19.58;;;11.82;;
66886;SDS011;67239;51.680;5.976;2023-08-20T06:56:09;18.20;;;11.38;;
66886;SDS011;67239;51.680;5.976;2023-08-20T06:58:38;14.55;;;9.93;;
66886;SDS011;67239;51.680;5.976;2023-08-20T07:01:07;16.20;;;10.75;;
66886;SDS011;67239;51.680;5.976;2023-08-20T07:03:36;15.32;;;10.15;;
66886;SDS011;67239;51.680;5.976;2023-08-20T07:06:05;14.50;;;9.70;;
66886;SDS011;67239;51.680;5.976;2023-08-20T07:08:33;17.13;;;9.00;;
66886;SDS011;67239;51.680;5.976;2023-08-20T07:11:00;12.25;;;8.40;;
66886;SDS011;67239;51.680;5.976;2023-08-20T07:13:27;15.70;;;9.18;;
66886;SDS011;67239;51.680;5.976;2023-08-20T07:15:55;16.50;;;10.55;;
66886;SDS011;67239;51.680;5.976;2023-08-20T07:18:22;13.52;;;9.68;;
66886;SDS011;67239;51.680;5.976;2023-08-20T07:20:50;16.05;;;9.68;;
66886;SDS011;67239;51.680;5.976;2023-08-20T07:23:22;13.80;;;9.80;;
66886;SDS011;67239;51.680;5.976;2023-08-20T07:25:49;15.13;;;8.85;;
66886;SDS011;67239;51.680;5.976;2023-08-20T07:28:21;12.77;;;8.32;;
66886;SDS011;67239;51.680;5.976;2023-08-20T07:31:08;12.70;;;7.72;;
66886;SDS011;67239;51.680;5.976;2023-08-20T07:33:36;12.90;;;8.38;;
66886;SDS011;67239;51.680;5.976;2023-08-20T07:36:04;13.98;;;8.15;;
66886;SDS011;67239;51.680;5.976;2023-08-20T07:38:31;12.77;;;7.68;;
66886;SDS011;67239;51.680;5.976;2023-08-20T07:40:58;13.00;;;7.80;;
66886;SDS011;67239;51.680;5.976;2023-08-20T07:43:25;14.50;;;7.82;;
66886;SDS011;67239;51.680;5.976;2023-08-20T07:45:52;12.80;;;7.00;;
66886;SDS011;67239;51.680;5.976;2023-08-20T07:48:22;12.77;;;7.28;;
66886;SDS011;67239;51.680;5.976;2023-08-20T07:50:49;14.93;;;6.68;;
66886;SDS011;67239;51.680;5.976;2023-08-20T07:53:16;14.20;;;6.80;;
66886;SDS011;67239;51.680;5.976;2023-08-20T07:55:44;14.73;;;6.35;;
66886;SDS011;67239;51.680;5.976;2023-08-20T07:58:11;12.80;;;5.65;;
66886;SDS011;67239;51.680;5.976;2023-08-20T08:00:38;10.27;;;5.32;;
66886;SDS011;67239;51.680;5.976;2023-08-20T08:03:05;10.75;;;5.20;;
66886;SDS011;67239;51.680;5.976;2023-08-20T08:05:32;12.45;;;5.53;;
66886;SDS011;67239;51.680;5.976;2023-08-20T08:08:00;10.38;;;5.85;;
66886;SDS011;67239;51.680;5.976;2023-08-20T08:10:27;15.20;;;5.63;;
66886;SDS011;67239;51.680;5.976;2023-08-20T08:12:54;10.20;;;5.18;;
66886;SDS011;67239;51.680;5.976;2023-08-20T08:15:21;12.30;;;5.28;;
66886;SDS011;67239;51.680;5.976;2023-08-20T08:17:49;10.30;;;5.50;;
66886;SDS011;67239;51.680;5.976;2023-08-20T08:20:17;8.65;;;5.10;;
66886;SDS011;67239;51.680;5.976;2023-08-20T08:22:44;11.70;;;5.20;;
66886;SDS011;67239;51.680;5.976;2023-08-20T08:25:11;12.25;;;5.28;;
66886;SDS011;67239;51.680;5.976;2023-08-20T08:27:40;10.15;;;4.60;;
66886;SDS011;67239;51.680;5.976;2023-08-20T08:30:24;9.60;;;3.90;;
66886;SDS011;67239;51.680;5.976;2023-08-20T08:32:51;9.30;;;3.80;;
66886;SDS011;67239;51.680;5.976;2023-08-20T08:35:19;6.63;;;3.20;;
66886;SDS011;67239;51.680;5.976;2023-08-20T08:37:46;9.80;;;3.80;;
66886;SDS011;67239;51.680;5.976;2023-08-20T08:40:13;8.10;;;3.95;;
66886;SDS011;67239;51.680;5.976;2023-08-20T08:42:42;10.52;;;3.42;;
66886;SDS011;67239;51.680;5.976;2023-08-20T08:45:12;6.68;;;3.38;;
66886;SDS011;67239;51.680;5.976;2023-08-20T08:47:39;7.32;;;3.00;;
66886;SDS011;67239;51.680;5.976;2023-08-20T08:50:07;9.38;;;3.15;;
66886;SDS011;67239;51.680;5.976;2023-08-20T08:52:36;8.10;;;3.08;;
66886;SDS011;67239;51.680;5.976;2023-08-20T08:55:06;9.77;;;3.20;;
66886;SDS011;67239;51.680;5.976;2023-08-20T08:57:36;7.57;;;2.83;;
66886;SDS011;67239;51.680;5.976;2023-08-20T09:00:04;6.95;;;3.40;;
66886;SDS011;67239;51.680;5.976;2023-08-20T09:02:33;7.97;;;3.63;;
66886;SDS011;67239;51.680;5.976;2023-08-20T09:05:00;9.50;;;3.50;;
66886;SDS011;67239;51.680;5.976;2023-08-20T09:07:27;12.90;;;4.53;;
66886;SDS011;67239;51.680;5.976;2023-08-20T09:09:57;10.10;;;3.60;;
66886;SDS011;67239;51.680;5.976;2023-08-20T09:12:26;8.90;;;4.18;;
66886;SDS011;67239;51.680;5.976;2023-08-20T09:14:54;13.02;;;4.50;;
66886;SDS011;67239;51.680;5.976;2023-08-20T09:17:25;8.50;;;3.60;;
66886;SDS011;67239;51.680;5.976;2023-08-20T09:19:56;10.30;;;4.50;;
66886;SDS011;67239;51.680;5.976;2023-08-20T09:22:24;13.43;;;5.68;;
66886;SDS011;67239;51.680;5.976;2023-08-20T09:24:55;10.35;;;4.93;;
66886;SDS011;67239;51.680;5.976;2023-08-20T09:27:23;8.35;;;4.20;;
66886;SDS011;67239;51.680;5.976;2023-08-20T09:29:53;9.98;;;4.38;;
66886;SDS011;67239;51.680;5.976;2023-08-20T09:32:23;10.32;;;4.20;;
66886;SDS011;67239;51.680;5.976;2023-08-20T09:34:54;12.43;;;4.53;;
66886;SDS011;67239;51.680;5.976;2023-08-20T09:37:23;10.77;;;4.30;;
66886;SDS011;67239;51.680;5.976;2023-08-20T09:39:51;8.27;;;3.72;;
66886;SDS011;67239;51.680;5.976;2023-08-20T09:42:19;9.75;;;3.55;;
66886;SDS011;67239;51.680;5.976;2023-08-20T09:44:46;9.60;;;3.40;;
66886;SDS011;67239;51.680;5.976;2023-08-20T09:47:17;9.48;;;3.63;;
66886;SDS011;67239;51.680;5.976;2023-08-20T09:49:48;9.35;;;3.47;;
66886;SDS011;67239;51.680;5.976;2023-08-20T09:52:21;6.13;;;2.78;;
66886;SDS011;67239;51.680;5.976;2023-08-20T09:55:08;8.40;;;2.70;;
66886;SDS011;67239;51.680;5.976;2023-08-20T09:57:40;8.35;;;3.22;;
66886;SDS011;67239;51.680;5.976;2023-08-20T10:00:12;5.85;;;2.90;;
66886;SDS011;67239;51.680;5.976;2023-08-20T10:02:43;7.30;;;3.17;;
66886;SDS011;67239;51.680;5.976;2023-08-20T10:05:11;8.18;;;2.80;;
66886;SDS011;67239;51.680;5.976;2023-08-20T10:07:41;5.97;;;2.90;;
66886;SDS011;67239;51.680;5.976;2023-08-20T10:10:09;8.23;;;2.70;;
66886;SDS011;67239;51.680;5.976;2023-08-20T10:12:42;6.18;;;2.97;;
66886;SDS011;67239;51.680;5.976;2023-08-20T10:15:12;5.78;;;2.25;;
66886;SDS011;67239;51.680;5.976;2023-08-20T10:17:42;6.55;;;2.40;;
66886;SDS011;67239;51.680;5.976;2023-08-20T10:20:12;4.97;;;1.90;;
66886;SDS011;67239;51.680;5.976;2023-08-20T10:22:43;3.90;;;1.55;;
66886;SDS011;67239;51.680;5.976;2023-08-20T10:25:16;5.80;;;2.10;;
66886;SDS011;67239;51.680;5.976;2023-08-20T10:27:53;6.85;;;2.03;;
66886;SDS011;67239;51.680;5.976;2023-08-20T10:30:24;5.63;;;2.20;;
66886;SDS011;67239;51.680;5.976;2023-08-20T10:35:46;4.90;;;1.63;;
66886;SDS011;67239;51.680;5.976;2023-08-20T10:38:14;6.43;;;1.30;;
66886;SDS011;67239;51.680;5.976;2023-08-20T10:40:49;8.07;;;1.40;;
66886;SDS011;67239;51.680;5.976;2023-08-20T10:43:33;4.82;;;1.33;;
66886;SDS011;67239;51.680;5.976;2023-08-20T10:46:05;3.42;;;1.30;;
66886;SDS011;67239;51.680;5.976;2023-08-20T10:48:38;3.67;;;1.00;;
66886;SDS011;67239;51.680;5.976;2023-08-20T10:51:10;6.28;;;0.80;;
66886;SDS011;67239;51.680;5.976;2023-08-20T10:59:25;3.17;;;0.80;;
66886;SDS011;67239;51.680;5.976;2023-08-20T11:01:57;5.65;;;0.85;;
66886;SDS011;67239;51.680;5.976;2023-08-20T11:04:30;2.53;;;0.73;;
66886;SDS011;67239;51.680;5.976;2023-08-20T11:07:01;2.90;;;0.90;;
66886;SDS011;67239;51.680;5.976;2023-08-20T11:09:30;5.13;;;1.00;;
66886;SDS011;67239;51.680;5.976;2023-08-20T11:11:58;7.53;;;0.93;;
66886;SDS011;67239;51.680;5.976;2023-08-20T11:14:26;2.60;;;0.60;;
66886;SDS011;67239;51.680;5.976;2023-08-20T11:16:53;1.75;;;0.50;;
66886;SDS011;67239;51.680;5.976;2023-08-20T11:19:21;1.63;;;0.45;;
66886;SDS011;67239;51.680;5.976;2023-08-20T11:21:50;3.08;;;0.60;;
66886;SDS011;67239;51.680;5.976;2023-08-20T11:24:18;2.22;;;0.60;;
66886;SDS011;67239;51.680;5.976;2023-08-20T11:26:47;1.92;;;0.60;;
66886;SDS011;67239;51.680;5.976;2023-08-20T11:29:15;4.03;;;0.82;;
66886;SDS011;67239;51.680;5.976;2023-08-20T11:34:20;3.65;;;0.60;;
66886;SDS011;67239;51.680;5.976;2023-08-20T11:36:48;2.30;;;0.47;;
66886;SDS011;67239;51.680;5.976;2023-08-20T11:39:16;1.50;;;0.50;;
66886;SDS011;67239;51.680;5.976;2023-08-20T11:41:43;6.30;;;0.70;;
66886;SDS011;67239;51.680;5.976;2023-08-20T11:44:18;2.63;;;0.60;;
66886;SDS011;67239;51.680;5.976;2023-08-20T11:46:48;2.72;;;0.65;;
66886;SDS011;67239;51.680;5.976;2023-08-20T11:49:17;2.63;;;0.57;;
66886;SDS011;67239;51.680;5.976;2023-08-20T11:51:55;4.75;;;0.50;;
66886;SDS011;67239;51.680;5.976;2023-08-20T11:54:22;4.90;;;0.90;;
66886;SDS011;67239;51.680;5.976;2023-08-20T11:56:52;2.88;;;0.63;;
66886;SDS011;67239;51.680;5.976;2023-08-20T11:59:30;1.52;;;0.47;;
66886;SDS011;67239;51.680;5.976;2023-08-20T12:02:01;2.95;;;0.50;;
66886;SDS011;67239;51.680;5.976;2023-08-20T12:04:32;3.17;;;0.47;;
66886;SDS011;67239;51.680;5.976;2023-08-20T12:07:03;1.42;;;0.45;;
66886;SDS011;67239;51.680;5.976;2023-08-20T12:09:41;1.48;;;0.50;;
66886;SDS011;67239;51.680;5.976;2023-08-20T12:12:09;3.58;;;0.57;;
66886;SDS011;67239;51.680;5.976;2023-08-20T12:14:37;1.88;;;0.50;;
66886;SDS011;67239;51.680;5.976;2023-08-20T12:17:04;4.68;;;0.50;;
66886;SDS011;67239;51.680;5.976;2023-08-20T12:19:32;1.20;;;0.50;;
66886;SDS011;67239;51.680;5.976;2023-08-20T12:21:59;2.38;;;0.50;;
66886;SDS011;67239;51.680;5.976;2023-08-20T12:24:26;2.20;;;0.60;;
66886;SDS011;67239;51.680;5.976;2023-08-20T12:26:53;2.38;;;0.60;;
66886;SDS011;67239;51.680;5.976;2023-08-20T12:29:20;3.42;;;0.60;;
66886;SDS011;67239;51.680;5.976;2023-08-20T12:31:48;3.00;;;0.50;;
66886;SDS011;67239;51.680;5.976;2023-08-20T12:34:15;2.25;;;0.50;;
66886;SDS011;67239;51.680;5.976;2023-08-20T12:36:42;2.60;;;0.60;;
66886;SDS011;67239;51.680;5.976;2023-08-20T12:39:09;3.45;;;0.68;;
66886;SDS011;67239;51.680;5.976;2023-08-20T12:41:36;2.35;;;0.60;;
66886;SDS011;67239;51.680;5.976;2023-08-20T12:44:04;2.47;;;0.60;;
66886;SDS011;67239;51.680;5.976;2023-08-20T12:46:33;1.23;;;0.40;;
66886;SDS011;67239;51.680;5.976;2023-08-20T12:49:01;4.53;;;0.65;;
66886;SDS011;67239;51.680;5.976;2023-08-20T12:51:28;3.55;;;0.50;;
66886;SDS011;67239;51.680;5.976;2023-08-20T12:53:55;2.03;;;0.40;;
66886;SDS011;67239;51.680;5.976;2023-08-20T12:56:22;3.92;;;0.60;;
66886;SDS011;67239;51.680;5.976;2023-08-20T12:58:50;3.22;;;0.55;;
66886;SDS011;67239;51.680;5.976;2023-08-20T13:01:17;1.70;;;0.43;;
66886;SDS011;67239;51.680;5.976;2023-08-20T13:03:46;2.72;;;0.52;;
66886;SDS011;67239;51.680;5.976;2023-08-20T13:06:15;4.45;;;0.60;;
66886;SDS011;67239;51.680;5.976;2023-08-20T13:08:42;4.13;;;0.63;;
66886;SDS011;67239;51.680;5.976;2023-08-20T13:11:11;1.83;;;0.52;;
66886;SDS011;67239;51.680;5.976;2023-08-20T13:13:44;1.80;;;0.57;;
66886;SDS011;67239;51.680;5.976;2023-08-20T13:16:12;1.30;;;0.50;;
66886;SDS011;67239;51.680;5.976;2023-08-20T13:18:39;2.28;;;0.55;;
66886;SDS011;67239;51.680;5.976;2023-08-20T13:21:07;3.00;;;0.50;;
66886;SDS011;67239;51.680;5.976;2023-08-20T13:23:35;1.52;;;0.50;;
66886;SDS011;67239;51.680;5.976;2023-08-20T13:26:02;6.10;;;0.88;;
66886;SDS011;67239;51.680;5.976;2023-08-20T13:28:29;2.45;;;0.80;;
66886;SDS011;67239;51.680;5.976;2023-08-20T13:30:59;5.47;;;0.77;;
66886;SDS011;67239;51.680;5.976;2023-08-20T13:33:26;3.70;;;0.50;;
66886;SDS011;67239;51.680;5.976;2023-08-20T13:35:53;2.65;;;0.60;;
66886;SDS011;67239;51.680;5.976;2023-08-20T13:38:20;4.75;;;0.80;;
66886;SDS011;67239;51.680;5.976;2023-08-20T13:40:49;1.70;;;0.43;;
66886;SDS011;67239;51.680;5.976;2023-08-20T13:43:16;3.08;;;0.60;;
66886;SDS011;67239;51.680;5.976;2023-08-20T13:45:43;1.23;;;0.40;;
66886;SDS011;67239;51.680;5.976;2023-08-20T13:48:10;1.50;;;0.40;;
66886;SDS011;67239;51.680;5.976;2023-08-20T13:50:38;2.53;;;0.63;;
66886;SDS011;67239;51.680;5.976;2023-08-20T13:53:06;3.63;;;0.70;;
66886;SDS011;67239;51.680;5.976;2023-08-20T13:55:34;2.15;;;0.40;;
66886;SDS011;67239;51.680;5.976;2023-08-20T13:58:01;2.42;;;0.70;;
66886;SDS011;67239;51.680;5.976;2023-08-20T14:00:28;1.67;;;0.50;;
66886;SDS011;67239;51.680;5.976;2023-08-20T14:02:57;3.40;;;0.63;;
66886;SDS011;67239;51.680;5.976;2023-08-20T14:05:25;2.67;;;0.47;;
66886;SDS011;67239;51.680;5.976;2023-08-20T14:07:52;2.53;;;0.47;;
66886;SDS011;67239;51.680;5.976;2023-08-20T14:10:19;3.05;;;0.60;;
66886;SDS011;67239;51.680;5.976;2023-08-20T14:12:47;1.08;;;0.60;;
66886;SDS011;67239;51.680;5.976;2023-08-20T14:15:14;5.68;;;0.90;;
66886;SDS011;67239;51.680;5.976;2023-08-20T14:17:41;3.45;;;0.73;;
66886;SDS011;67239;51.680;5.976;2023-08-20T14:20:09;3.50;;;1.00;;
66886;SDS011;67239;51.680;5.976;2023-08-20T14:22:38;2.83;;;0.70;;
66886;SDS011;67239;51.680;5.976;2023-08-20T14:25:06;2.65;;;0.80;;
66886;SDS011;67239;51.680;5.976;2023-08-20T14:27:33;2.85;;;0.60;;
66886;SDS011;67239;51.680;5.976;2023-08-20T14:30:02;4.20;;;1.02;;
66886;SDS011;67239;51.680;5.976;2023-08-20T14:32:31;2.22;;;0.50;;
66886;SDS011;67239;51.680;5.976;2023-08-20T14:34:58;2.50;;;0.57;;
66886;SDS011;67239;51.680;5.976;2023-08-20T14:37:25;2.15;;;0.52;;
66886;SDS011;67239;51.680;5.976;2023-08-20T14:39:53;4.03;;;0.63;;
66886;SDS011;67239;51.680;5.976;2023-08-20T14:42:20;1.58;;;0.50;;
66886;SDS011;67239;51.680;5.976;2023-08-20T14:44:47;3.58;;;0.70;;
66886;SDS011;67239;51.680;5.976;2023-08-20T14:47:14;4.10;;;0.77;;
66886;SDS011;67239;51.680;5.976;2023-08-20T14:49:41;2.97;;;0.77;;
66886;SDS011;67239;51.680;5.976;2023-08-20T14:52:09;2.33;;;0.60;;
66886;SDS011;67239;51.680;5.976;2023-08-20T14:54:43;3.42;;;0.80;;
66886;SDS011;67239;51.680;5.976;2023-08-20T14:57:10;3.97;;;0.85;;
66886;SDS011;67239;51.680;5.976;2023-08-20T14:59:37;4.20;;;0.60;;
66886;SDS011;67239;51.680;5.976;2023-08-20T15:02:05;2.92;;;0.77;;
66886;SDS011;67239;51.680;5.976;2023-08-20T15:04:32;3.90;;;0.55;;
66886;SDS011;67239;51.680;5.976;2023-08-20T15:06:59;4.78;;;1.02;;